createdAt,value
2022-11-29T00:02:04.653Z,6.15
2022-11-29T00:07:06.090Z,6.22
2022-11-29T00:12:14.974Z,6.31
2022-11-29T00:17:16.356Z,6.39
2022-11-29T00:22:17.740Z,6.48
2022-11-29T00:27:19.119Z,6.54
2022-11-29T00:32:20.499Z,6.58
2022-11-29T00:37:21.871Z,6.64
2022-11-29T00:42:23.271Z,6.69
2022-11-29T00:47:24.666Z,6.69
2022-11-29T00:52:26.119Z,6.66
2022-11-29T00:57:27.485Z,6.64
2022-11-29T01:02:28.937Z,6.67
2022-11-29T01:07:30.504Z,6.67
2022-11-29T01:12:36.018Z,6.65
2022-11-29T01:17:39.366Z,6.62
2022-11-29T01:22:40.820Z,6.55
2022-11-29T01:27:42.658Z,6.48
2022-11-29T01:32:44.025Z,6.44
2022-11-29T01:37:45.387Z,6.44
2022-11-29T01:42:46.791Z,6.48
2022-11-29T01:47:51.219Z,6.46
2022-11-29T01:52:52.839Z,6.51
2022-11-29T01:57:54.221Z,6.56
2022-11-29T02:03:01.503Z,6.60
2022-11-29T02:08:02.998Z,6.56
2022-11-29T02:13:23.706Z,6.54
2022-11-29T02:18:56.422Z,6.47
2022-11-29T02:24:27.670Z,6.44
2022-11-29T02:29:59.711Z,6.46
2022-11-29T02:35:29.697Z,6.46
2022-11-29T02:40:38.992Z,6.46
2022-11-29T02:46:18.847Z,6.51
2022-11-29T02:51:32.462Z,6.59
2022-11-29T02:56:48.603Z,6.61
2022-11-29T03:02:06.560Z,6.64
2022-11-29T03:07:38.887Z,6.64
2022-11-29T03:12:44.569Z,6.58
2022-11-29T03:18:32.683Z,6.58
2022-11-29T03:24:15.606Z,6.58
2022-11-29T03:29:40.535Z,6.56
2022-11-29T03:35:24.170Z,6.57
2022-11-29T03:40:33.099Z,6.55
2022-11-29T03:45:52.186Z,6.51
2022-11-29T03:50:57.693Z,6.51
2022-11-29T03:56:01.726Z,6.52
2022-11-29T04:01:33.751Z,6.50
2022-11-29T04:07:05.893Z,6.54
2022-11-29T04:12:36.855Z,6.48
2022-11-29T04:17:44.172Z,6.47
2022-11-29T04:23:10.430Z,6.43
2022-11-29T04:28:26.860Z,6.39
2022-11-29T04:34:08.006Z,6.38
2022-11-29T04:39:23.411Z,6.43
2022-11-29T04:44:40.205Z,6.45
2022-11-29T04:49:47.654Z,6.45
2022-11-29T04:55:00.759Z,6.47
2022-11-29T05:00:40.067Z,6.43
2022-11-29T05:05:49.711Z,6.45
2022-11-29T05:11:03.731Z,6.43
2022-11-29T05:16:15.422Z,6.40
2022-11-29T05:21:50.134Z,6.35
2022-11-29T05:27:25.547Z,6.30
2022-11-29T05:32:56.724Z,6.24
2022-11-29T05:38:39.620Z,6.23
2022-11-29T05:44:11.184Z,6.21
2022-11-29T05:49:20.234Z,6.23
2022-11-29T05:54:36.830Z,6.23
2022-11-29T05:59:39.320Z,6.23
2022-11-29T06:04:45.729Z,6.21
2022-11-29T06:10:03.859Z,6.15
2022-11-29T06:15:27.934Z,6.11
2022-11-29T06:20:51.551Z,6.13
2022-11-29T06:26:17.795Z,6.18
2022-11-29T06:31:28.158Z,6.27
2022-11-29T06:36:52.619Z,6.30
2022-11-29T06:41:54.095Z,6.33
2022-11-29T06:47:08.935Z,6.32
2022-11-29T06:52:43.659Z,6.30
2022-11-29T06:57:47.998Z,6.30
2022-11-29T07:03:29.578Z,6.32
2022-11-29T07:08:31.254Z,6.36
2022-11-29T07:13:32.891Z,6.39
2022-11-29T07:18:47.107Z,6.44
2022-11-29T07:24:19.309Z,6.45
2022-11-29T07:29:29.051Z,6.46
2022-11-29T07:34:39.374Z,6.51
2022-11-29T07:39:56.102Z,6.60
2022-11-29T07:45:24.019Z,6.64
2022-11-29T07:50:27.215Z,6.64
2022-11-29T07:55:29.677Z,6.65
2022-11-29T08:00:31.058Z,6.67
2022-11-29T08:05:32.430Z,6.68
2022-11-29T08:10:35.404Z,6.68
2022-11-29T08:15:36.896Z,6.71
2022-11-29T08:20:39.137Z,6.76
2022-11-29T08:25:41.051Z,6.79
2022-11-29T08:30:42.440Z,6.82
2022-11-29T08:35:43.806Z,6.89
2022-11-29T08:40:45.189Z,6.97
2022-11-29T08:45:51.987Z,7.03
2022-11-29T08:50:55.418Z,7.06
2022-11-29T08:55:59.730Z,7.16
2022-11-29T09:01:01.447Z,7.22
2022-11-29T09:06:14.754Z,7.31
2022-11-29T09:11:19.763Z,7.35
2022-11-29T09:16:25.145Z,7.36
2022-11-29T09:21:29.278Z,7.36
2022-11-29T09:26:34.335Z,7.34
2022-11-29T09:31:35.898Z,7.36
2022-11-29T09:36:37.296Z,7.38
2022-11-29T09:41:56.812Z,7.39
2022-11-29T09:47:17.936Z,7.42
2022-11-29T09:52:25.378Z,7.42
2022-11-29T09:57:29.635Z,7.43
2022-11-29T10:02:45.511Z,7.46
2022-11-29T10:08:25.799Z,7.54
2022-11-29T10:13:35.009Z,7.58
2022-11-29T10:19:03.583Z,7.65
2022-11-29T10:24:13.346Z,7.76
2022-11-29T10:29:16.303Z,7.86
2022-11-29T10:34:19.838Z,7.92
2022-11-29T10:39:28.966Z,7.96
2022-11-29T10:44:32.755Z,8.00
2022-11-29T10:49:36.132Z,8.06
2022-11-29T10:54:41.672Z,8.14
2022-11-29T10:59:59.383Z,8.21
2022-11-29T11:05:01.518Z,8.26
2022-11-29T11:10:05.950Z,8.32
2022-11-29T11:15:29.028Z,8.38
2022-11-29T11:20:39.990Z,8.39
2022-11-29T11:25:41.397Z,8.39
2022-11-29T11:30:51.365Z,8.37
2022-11-29T11:36:26.184Z,8.36
2022-11-29T11:41:52.014Z,8.37
2022-11-29T11:46:53.632Z,8.32
2022-11-29T11:51:55.479Z,8.30
2022-11-29T11:56:57.362Z,8.25
2022-11-29T12:01:58.765Z,8.20
2022-11-29T12:07:03.150Z,8.21
2022-11-29T12:12:20.415Z,8.17
2022-11-29T12:17:46.644Z,8.21
2022-11-29T12:23:12.914Z,8.24
2022-11-29T12:28:20.690Z,8.28
2022-11-29T12:33:31.475Z,8.32
2022-11-29T12:38:51.015Z,8.34
2022-11-29T12:44:05.196Z,8.32
2022-11-29T12:49:33.136Z,8.36
2022-11-29T12:54:52.736Z,8.33
2022-11-29T12:59:54.047Z,8.28
2022-11-29T13:05:09.559Z,8.20
2022-11-29T13:10:35.876Z,8.16
2022-11-29T13:15:56.178Z,8.14
2022-11-29T13:21:13.485Z,8.15
2022-11-29T13:26:18.786Z,8.16
2022-11-29T13:31:23.311Z,8.14
2022-11-29T13:37:03.383Z,8.11
2022-11-29T13:42:04.745Z,8.08
2022-11-29T13:47:12.411Z,8.03
2022-11-29T13:52:27.465Z,7.99
2022-11-29T13:57:28.929Z,7.98
2022-11-29T14:02:31.752Z,7.94
2022-11-29T14:07:34.925Z,7.93
2022-11-29T14:12:55.341Z,7.92
2022-11-29T14:17:59.206Z,7.84
2022-11-29T14:23:07.316Z,7.83
2022-11-29T14:28:14.654Z,7.81
2022-11-29T14:33:37.224Z,7.79
2022-11-29T14:39:10.177Z,7.78
2022-11-29T14:44:24.105Z,7.76
2022-11-29T14:49:27.018Z,7.75
2022-11-29T14:54:28.543Z,7.75
2022-11-29T14:59:48.662Z,7.70
2022-11-29T15:04:53.338Z,7.65
2022-11-29T15:09:59.393Z,7.63
2022-11-29T15:15:09.724Z,7.60
2022-11-29T15:20:37.888Z,7.59
2022-11-29T15:25:50.735Z,7.57
2022-11-29T15:31:07.848Z,7.54
2022-11-29T15:36:18.822Z,7.50
2022-11-29T15:41:28.698Z,7.47
2022-11-29T15:46:33.023Z,7.48
2022-11-29T15:51:38.123Z,7.45
2022-11-29T15:56:47.358Z,7.44
2022-11-29T16:01:52.070Z,7.42
2022-11-29T16:06:55.128Z,7.42
2022-11-29T16:11:57.335Z,7.38
2022-11-29T16:17:00.698Z,7.38
2022-11-29T16:22:23.408Z,7.37
2022-11-29T16:27:24.922Z,7.33
2022-11-29T16:32:33.615Z,7.35
2022-11-29T16:37:43.494Z,7.33
2022-11-29T16:43:14.566Z,7.31
2022-11-29T16:48:22.002Z,7.27
2022-11-29T16:53:42.142Z,7.28
2022-11-29T16:59:17.223Z,7.28
2022-11-29T17:04:09.154Z,7.29
2022-11-29T17:09:25.099Z,7.31
2022-11-29T17:14:27.088Z,7.29
2022-11-29T17:19:29.643Z,7.29
2022-11-29T17:24:31.166Z,7.27
2022-11-29T17:29:32.613Z,7.25
2022-11-29T17:34:34.485Z,7.22
2022-11-29T17:39:35.889Z,7.23
2022-11-29T17:44:37.348Z,7.24
2022-11-29T17:49:38.915Z,7.23
2022-11-29T17:54:40.383Z,7.23
2022-11-29T17:59:41.917Z,7.20
2022-11-29T18:04:44.318Z,7.15
2022-11-29T18:09:47.299Z,7.16
2022-11-29T18:14:50.666Z,7.15
2022-11-29T18:19:52.053Z,7.16
2022-11-29T18:25:05.386Z,7.16
2022-11-29T18:30:15.303Z,7.15
2022-11-29T18:35:16.823Z,7.14
2022-11-29T18:40:18.214Z,7.14
2022-11-29T18:45:19.634Z,7.12
2022-11-29T18:50:21.011Z,7.12
2022-11-29T18:55:22.451Z,7.12
2022-11-29T19:00:23.914Z,7.13
2022-11-29T19:05:25.307Z,7.15
2022-11-29T19:10:26.770Z,7.13
2022-11-29T19:16:01.526Z,7.12
2022-11-29T22:22:35.478Z,6.55
2022-11-29T22:27:36.865Z,6.56
2022-11-29T22:32:38.243Z,6.54
2022-11-29T22:37:41.164Z,6.50
2022-11-29T22:42:43.139Z,6.51
2022-11-29T22:47:44.523Z,6.50
2022-11-29T22:52:45.900Z,6.45
2022-11-29T22:57:47.320Z,6.47
2022-11-29T23:02:48.670Z,6.52
2022-11-29T23:07:54.063Z,6.55
2022-11-29T23:12:55.499Z,6.49
2022-11-29T23:17:56.887Z,6.42
2022-11-29T23:22:59.479Z,6.38
2022-11-29T23:28:00.851Z,6.34
2022-11-29T23:33:02.210Z,6.33
2022-11-29T23:38:03.682Z,6.38
2022-11-29T23:43:05.259Z,6.38
2022-11-29T23:48:06.671Z,6.35
2022-11-29T23:53:08.120Z,6.33
2022-11-29T23:58:10.690Z,6.36
